sensor_id;sensor_type;location;lat;lon;timestamp;temperature;humidity
49132;DHT22;35149;51.196;6.204;2023-03-01T00:01:47;2.70;53.80
49132;DHT22;35149;51.196;6.204;2023-03-01T00:04:16;2.60;53.70
49132;DHT22;35149;51.196;6.204;2023-03-01T00:06:42;2.60;53.80
49132;DHT22;35149;51.196;6.204;2023-03-01T00:09:13;2.60;53.90
49132;DHT22;35149;51.196;6.204;2023-03-01T00:11:41;2.50;53.80
49132;DHT22;35149;51.196;6.204;2023-03-01T00:14:12;2.60;53.90
49132;DHT22;35149;51.196;6.204;2023-03-01T00:16:41;2.50;54.00
49132;DHT22;35149;51.196;6.204;2023-03-01T00:19:15;2.50;54.30
49132;DHT22;35149;51.196;6.204;2023-03-01T00:21:46;2.50;54.70
49132;DHT22;35149;51.196;6.204;2023-03-01T00:24:15;2.50;54.60
49132;DHT22;35149;51.196;6.204;2023-03-01T00:26:44;2.50;54.60
49132;DHT22;35149;51.196;6.204;2023-03-01T00:29:10;2.60;54.50
49132;DHT22;35149;51.196;6.204;2023-03-01T00:31:46;2.60;54.50
49132;DHT22;35149;51.196;6.204;2023-03-01T00:34:13;2.60;54.40
49132;DHT22;35149;51.196;6.204;2023-03-01T00:36:39;2.60;54.40
49132;DHT22;35149;51.196;6.204;2023-03-01T00:39:14;2.60;54.50
49132;DHT22;35149;51.196;6.204;2023-03-01T00:41:42;2.60;54.70
49132;DHT22;35149;51.196;6.204;2023-03-01T00:44:09;2.50;54.40
49132;DHT22;35149;51.196;6.204;2023-03-01T00:46:40;2.60;54.50
49132;DHT22;35149;51.196;6.204;2023-03-01T00:49:09;2.60;54.40
49132;DHT22;35149;51.196;6.204;2023-03-01T00:51:38;2.50;54.40
49132;DHT22;35149;51.196;6.204;2023-03-01T00:54:10;2.50;54.30
49132;DHT22;35149;51.196;6.204;2023-03-01T00:56:38;2.60;54.30
49132;DHT22;35149;51.196;6.204;2023-03-01T00:59:11;2.50;54.20
49132;DHT22;35149;51.196;6.204;2023-03-01T01:01:38;2.50;55.10
49132;DHT22;35149;51.196;6.204;2023-03-01T01:04:10;2.40;54.30
49132;DHT22;35149;51.196;6.204;2023-03-01T01:06:39;2.40;54.40
49132;DHT22;35149;51.196;6.204;2023-03-01T01:09:13;2.40;54.40
49132;DHT22;35149;51.196;6.204;2023-03-01T01:11:50;2.30;54.40
49132;DHT22;35149;51.196;6.204;2023-03-01T01:14:26;2.30;54.50
49132;DHT22;35149;51.196;6.204;2023-03-01T01:16:53;2.30;54.60
49132;DHT22;35149;51.196;6.204;2023-03-01T01:19:20;2.20;54.30
49132;DHT22;35149;51.196;6.204;2023-03-01T01:21:47;2.20;54.40
49132;DHT22;35149;51.196;6.204;2023-03-01T01:24:15;2.20;54.50
49132;DHT22;35149;51.196;6.204;2023-03-01T01:26:42;2.10;54.50
49132;DHT22;35149;51.196;6.204;2023-03-01T01:29:12;2.10;54.60
49132;DHT22;35149;51.196;6.204;2023-03-01T01:31:40;2.10;54.60
49132;DHT22;35149;51.196;6.204;2023-03-01T01:34:15;2.10;54.60
49132;DHT22;35149;51.196;6.204;2023-03-01T01:36:52;2.10;54.80
49132;DHT22;35149;51.196;6.204;2023-03-01T01:39:21;2.00;54.60
49132;DHT22;35149;51.196;6.204;2023-03-01T01:41:48;2.00;54.60
49132;DHT22;35149;51.196;6.204;2023-03-01T01:44:20;2.00;54.70
49132;DHT22;35149;51.196;6.204;2023-03-01T01:46:55;2.00;54.70
49132;DHT22;35149;51.196;6.204;2023-03-01T01:54:59;1.90;55.00
49132;DHT22;35149;51.196;6.204;2023-03-01T01:57:41;1.90;55.40
49132;DHT22;35149;51.196;6.204;2023-03-01T02:00:24;1.90;55.20
49132;DHT22;35149;51.196;6.204;2023-03-01T02:02:56;1.80;54.80
49132;DHT22;35149;51.196;6.204;2023-03-01T02:08:01;1.80;54.90
49132;DHT22;35149;51.196;6.204;2023-03-01T02:10:31;1.80;54.70
49132;DHT22;35149;51.196;6.204;2023-03-01T02:13:03;1.70;54.80
49132;DHT22;35149;51.196;6.204;2023-03-01T02:15:34;1.70;55.00
49132;DHT22;35149;51.196;6.204;2023-03-01T02:18:02;1.70;55.00
49132;DHT22;35149;51.196;6.204;2023-03-01T02:23:00;1.60;55.00
49132;DHT22;35149;51.196;6.204;2023-03-01T02:30:49;1.50;55.60
49132;DHT22;35149;51.196;6.204;2023-03-01T02:33:38;1.50;55.30
49132;DHT22;35149;51.196;6.204;2023-03-01T02:36:20;1.50;55.00
49132;DHT22;35149;51.196;6.204;2023-03-01T02:38:48;1.50;55.50
49132;DHT22;35149;51.196;6.204;2023-03-01T02:41:19;1.40;55.10
49132;DHT22;35149;51.196;6.204;2023-03-01T02:43:50;1.40;55.10
49132;DHT22;35149;51.196;6.204;2023-03-01T02:46:23;1.50;56.20
49132;DHT22;35149;51.196;6.204;2023-03-01T02:48:57;1.40;55.00
49132;DHT22;35149;51.196;6.204;2023-03-01T02:54:25;1.40;55.90
49132;DHT22;35149;51.196;6.204;2023-03-01T02:56:52;1.40;55.50
49132;DHT22;35149;51.196;6.204;2023-03-01T02:59:24;1.30;55.20
49132;DHT22;35149;51.196;6.204;2023-03-01T03:01:52;1.30;55.40
49132;DHT22;35149;51.196;6.204;2023-03-01T03:04:23;1.30;55.40
49132;DHT22;35149;51.196;6.204;2023-03-01T03:06:52;1.30;55.40
49132;DHT22;35149;51.196;6.204;2023-03-01T03:09:24;1.20;55.30
49132;DHT22;35149;51.196;6.204;2023-03-01T03:11:53;1.20;55.40
49132;DHT22;35149;51.196;6.204;2023-03-01T03:14:25;1.20;55.30
49132;DHT22;35149;51.196;6.204;2023-03-01T03:16:59;1.20;55.30
49132;DHT22;35149;51.196;6.204;2023-03-01T03:19:33;1.20;55.40
49132;DHT22;35149;51.196;6.204;2023-03-01T03:22:00;1.20;55.40
49132;DHT22;35149;51.196;6.204;2023-03-01T03:24:29;1.10;55.30
49132;DHT22;35149;51.196;6.204;2023-03-01T03:27:08;1.10;55.30
49132;DHT22;35149;51.196;6.204;2023-03-01T03:29:39;1.10;55.40
49132;DHT22;35149;51.196;6.204;2023-03-01T03:32:05;1.00;55.30
49132;DHT22;35149;51.196;6.204;2023-03-01T03:34:32;1.00;55.30
49132;DHT22;35149;51.196;6.204;2023-03-01T03:36:59;1.00;55.40
49132;DHT22;35149;51.196;6.204;2023-03-01T03:39:26;1.00;55.50
49132;DHT22;35149;51.196;6.204;2023-03-01T03:42:04;1.00;55.50
49132;DHT22;35149;51.196;6.204;2023-03-01T03:44:30;1.00;55.50
49132;DHT22;35149;51.196;6.204;2023-03-01T03:47:03;0.90;55.50
49132;DHT22;35149;51.196;6.204;2023-03-01T03:49:33;0.90;55.60
49132;DHT22;35149;51.196;6.204;2023-03-01T03:52:01;0.90;55.80
49132;DHT22;35149;51.196;6.204;2023-03-01T03:54:27;0.90;56.00
49132;DHT22;35149;51.196;6.204;2023-03-01T03:56:59;1.00;56.10
49132;DHT22;35149;51.196;6.204;2023-03-01T03:59:29;0.90;56.20
49132;DHT22;35149;51.196;6.204;2023-03-01T04:01:55;0.90;56.20
49132;DHT22;35149;51.196;6.204;2023-03-01T04:04:24;0.90;56.20
49132;DHT22;35149;51.196;6.204;2023-03-01T04:06:53;0.90;56.20
49132;DHT22;35149;51.196;6.204;2023-03-01T04:09:22;0.90;56.20
49132;DHT22;35149;51.196;6.204;2023-03-01T04:11:49;0.90;56.10
49132;DHT22;35149;51.196;6.204;2023-03-01T04:14:18;0.90;56.10
49132;DHT22;35149;51.196;6.204;2023-03-01T04:16:47;0.90;56.20
49132;DHT22;35149;51.196;6.204;2023-03-01T04:19:14;0.90;56.20
49132;DHT22;35149;51.196;6.204;2023-03-01T04:21:42;0.90;56.10
49132;DHT22;35149;51.196;6.204;2023-03-01T04:24:09;0.90;56.10
49132;DHT22;35149;51.196;6.204;2023-03-01T04:26:39;0.90;56.10
49132;DHT22;35149;51.196;6.204;2023-03-01T04:29:06;0.90;56.20
49132;DHT22;35149;51.196;6.204;2023-03-01T04:31:32;0.90;56.20
49132;DHT22;35149;51.196;6.204;2023-03-01T04:34:00;0.90;56.30
49132;DHT22;35149;51.196;6.204;2023-03-01T04:36:28;0.90;56.30
49132;DHT22;35149;51.196;6.204;2023-03-01T04:38:56;0.90;56.30
49132;DHT22;35149;51.196;6.204;2023-03-01T04:41:28;0.80;56.30
49132;DHT22;35149;51.196;6.204;2023-03-01T04:43:54;0.90;57.20
49132;DHT22;35149;51.196;6.204;2023-03-01T04:46:24;0.90;56.00
49132;DHT22;35149;51.196;6.204;2023-03-01T04:48:54;0.80;56.40
49132;DHT22;35149;51.196;6.204;2023-03-01T04:51:23;0.90;56.50
49132;DHT22;35149;51.196;6.204;2023-03-01T04:53:50;0.90;56.70
49132;DHT22;35149;51.196;6.204;2023-03-01T04:56:17;0.90;57.10
49132;DHT22;35149;51.196;6.204;2023-03-01T04:58:53;0.90;57.20
49132;DHT22;35149;51.196;6.204;2023-03-01T05:01:21;0.90;57.30
49132;DHT22;35149;51.196;6.204;2023-03-01T05:03:49;0.90;57.20
49132;DHT22;35149;51.196;6.204;2023-03-01T05:06:18;0.90;57.50
49132;DHT22;35149;51.196;6.204;2023-03-01T05:08:45;1.00;57.50
49132;DHT22;35149;51.196;6.204;2023-03-01T05:11:15;1.00;57.60
49132;DHT22;35149;51.196;6.204;2023-03-01T05:13:42;1.10;57.70
49132;DHT22;35149;51.196;6.204;2023-03-01T05:16:09;1.00;57.70
49132;DHT22;35149;51.196;6.204;2023-03-01T05:18:38;1.00;57.70
49132;DHT22;35149;51.196;6.204;2023-03-01T05:21:08;1.10;57.70
49132;DHT22;35149;51.196;6.204;2023-03-01T05:23:35;1.10;57.70
49132;DHT22;35149;51.196;6.204;2023-03-01T05:26:04;1.10;57.60
49132;DHT22;35149;51.196;6.204;2023-03-01T05:28:39;1.10;57.60
49132;DHT22;35149;51.196;6.204;2023-03-01T05:31:06;1.10;57.60
49132;DHT22;35149;51.196;6.204;2023-03-01T05:33:40;1.10;57.50
49132;DHT22;35149;51.196;6.204;2023-03-01T05:36:08;1.30;57.80
49132;DHT22;35149;51.196;6.204;2023-03-01T05:38:36;1.10;57.60
49132;DHT22;35149;51.196;6.204;2023-03-01T05:41:05;1.10;57.70
49132;DHT22;35149;51.196;6.204;2023-03-01T05:43:31;1.20;57.60
49132;DHT22;35149;51.196;6.204;2023-03-01T05:46:00;1.10;57.70
49132;DHT22;35149;51.196;6.204;2023-03-01T05:48:27;1.10;57.70
49132;DHT22;35149;51.196;6.204;2023-03-01T05:50:53;1.20;57.80
49132;DHT22;35149;51.196;6.204;2023-03-01T05:53:20;1.20;57.80
49132;DHT22;35149;51.196;6.204;2023-03-01T05:55:49;1.20;57.80
49132;DHT22;35149;51.196;6.204;2023-03-01T05:58:19;1.20;57.70
49132;DHT22;35149;51.196;6.204;2023-03-01T06:00:47;1.20;57.70
49132;DHT22;35149;51.196;6.204;2023-03-01T06:03:17;1.20;57.50
49132;DHT22;35149;51.196;6.204;2023-03-01T06:05:44;1.10;57.40
49132;DHT22;35149;51.196;6.204;2023-03-01T06:08:12;1.10;57.30
49132;DHT22;35149;51.196;6.204;2023-03-01T06:10:39;1.10;57.20
49132;DHT22;35149;51.196;6.204;2023-03-01T06:13:06;1.10;57.20
49132;DHT22;35149;51.196;6.204;2023-03-01T06:15:32;1.00;57.20
49132;DHT22;35149;51.196;6.204;2023-03-01T06:17:59;1.10;57.20
49132;DHT22;35149;51.196;6.204;2023-03-01T06:20:27;1.00;57.70
49132;DHT22;35149;51.196;6.204;2023-03-01T06:22:54;1.00;57.10
49132;DHT22;35149;51.196;6.204;2023-03-01T06:25:23;0.90;57.00
49132;DHT22;35149;51.196;6.204;2023-03-01T06:27:50;0.90;57.00
49132;DHT22;35149;51.196;6.204;2023-03-01T06:30:20;0.90;57.10
49132;DHT22;35149;51.196;6.204;2023-03-01T06:32:46;0.90;57.40
49132;DHT22;35149;51.196;6.204;2023-03-01T06:35:14;0.80;57.40
49132;DHT22;35149;51.196;6.204;2023-03-01T06:37:44;0.80;57.50
49132;DHT22;35149;51.196;6.204;2023-03-01T06:40:11;0.80;57.40
49132;DHT22;35149;51.196;6.204;2023-03-01T06:42:40;0.80;57.40
49132;DHT22;35149;51.196;6.204;2023-03-01T06:45:08;0.80;57.50
49132;DHT22;35149;51.196;6.204;2023-03-01T06:47:35;0.80;57.50
49132;DHT22;35149;51.196;6.204;2023-03-01T06:50:02;0.80;57.50
49132;DHT22;35149;51.196;6.204;2023-03-01T06:52:29;0.80;57.40
49132;DHT22;35149;51.196;6.204;2023-03-01T06:54:56;0.80;57.50
49132;DHT22;35149;51.196;6.204;2023-03-01T06:57:22;0.80;57.50
49132;DHT22;35149;51.196;6.204;2023-03-01T06:59:53;0.80;57.60
49132;DHT22;35149;51.196;6.204;2023-03-01T07:02:20;0.80;57.70
49132;DHT22;35149;51.196;6.204;2023-03-01T07:04:49;0.80;57.70
49132;DHT22;35149;51.196;6.204;2023-03-01T07:07:16;0.80;57.80
49132;DHT22;35149;51.196;6.204;2023-03-01T07:09:45;0.80;57.90
49132;DHT22;35149;51.196;6.204;2023-03-01T07:12:14;0.80;57.90
49132;DHT22;35149;51.196;6.204;2023-03-01T07:14:41;0.80;58.20
49132;DHT22;35149;51.196;6.204;2023-03-01T07:17:09;0.80;58.40
49132;DHT22;35149;51.196;6.204;2023-03-01T07:19:36;0.80;58.50
49132;DHT22;35149;51.196;6.204;2023-03-01T07:22:03;0.90;58.60
49132;DHT22;35149;51.196;6.204;2023-03-01T07:24:30;1.00;58.80
49132;DHT22;35149;51.196;6.204;2023-03-01T07:26:58;1.00;58.80
49132;DHT22;35149;51.196;6.204;2023-03-01T07:29:24;1.00;58.90
49132;DHT22;35149;51.196;6.204;2023-03-01T07:31:51;1.10;59.00
49132;DHT22;35149;51.196;6.204;2023-03-01T07:34:18;1.10;59.00
49132;DHT22;35149;51.196;6.204;2023-03-01T07:36:44;1.20;59.00
49132;DHT22;35149;51.196;6.204;2023-03-01T07:39:11;1.20;59.10
49132;DHT22;35149;51.196;6.204;2023-03-01T07:41:38;1.30;59.10
49132;DHT22;35149;51.196;6.204;2023-03-01T07:44:05;1.30;59.10
49132;DHT22;35149;51.196;6.204;2023-03-01T07:46:32;1.40;59.10
49132;DHT22;35149;51.196;6.204;2023-03-01T07:48:59;1.40;59.00
49132;DHT22;35149;51.196;6.204;2023-03-01T07:51:25;1.50;59.00
49132;DHT22;35149;51.196;6.204;2023-03-01T07:53:52;1.60;59.00
49132;DHT22;35149;51.196;6.204;2023-03-01T07:56:19;1.60;59.00
49132;DHT22;35149;51.196;6.204;2023-03-01T07:58:47;1.70;59.00
49132;DHT22;35149;51.196;6.204;2023-03-01T08:01:19;1.70;58.80
49132;DHT22;35149;51.196;6.204;2023-03-01T08:03:46;1.80;59.00
49132;DHT22;35149;51.196;6.204;2023-03-01T08:06:15;1.80;58.90
49132;DHT22;35149;51.196;6.204;2023-03-01T08:08:42;2.00;59.00
49132;DHT22;35149;51.196;6.204;2023-03-01T08:11:11;1.90;58.90
49132;DHT22;35149;51.196;6.204;2023-03-01T08:13:38;2.00;59.00
49132;DHT22;35149;51.196;6.204;2023-03-01T08:16:08;2.00;58.80
49132;DHT22;35149;51.196;6.204;2023-03-01T08:18:36;2.00;58.90
49132;DHT22;35149;51.196;6.204;2023-03-01T08:21:07;2.10;58.80
49132;DHT22;35149;51.196;6.204;2023-03-01T08:23:35;2.10;58.70
49132;DHT22;35149;51.196;6.204;2023-03-01T08:26:13;2.20;58.70
49132;DHT22;35149;51.196;6.204;2023-03-01T08:28:41;2.20;59.00
49132;DHT22;35149;51.196;6.204;2023-03-01T08:31:20;2.30;58.70
49132;DHT22;35149;51.196;6.204;2023-03-01T08:33:48;2.30;59.00
49132;DHT22;35149;51.196;6.204;2023-03-01T08:36:17;2.30;58.60
49132;DHT22;35149;51.196;6.204;2023-03-01T08:38:44;2.40;58.70
49132;DHT22;35149;51.196;6.204;2023-03-01T08:41:12;2.40;58.60
49132;DHT22;35149;51.196;6.204;2023-03-01T08:43:38;2.50;58.60
49132;DHT22;35149;51.196;6.204;2023-03-01T08:46:05;2.50;58.60
49132;DHT22;35149;51.196;6.204;2023-03-01T08:48:32;2.60;58.50
49132;DHT22;35149;51.196;6.204;2023-03-01T08:51:12;2.60;58.50
49132;DHT22;35149;51.196;6.204;2023-03-01T08:53:39;2.70;58.70
49132;DHT22;35149;51.196;6.204;2023-03-01T08:56:07;2.70;58.30
49132;DHT22;35149;51.196;6.204;2023-03-01T08:58:33;2.80;58.30
49132;DHT22;35149;51.196;6.204;2023-03-01T09:01:01;2.80;58.20
49132;DHT22;35149;51.196;6.204;2023-03-01T09:03:27;2.90;58.20
49132;DHT22;35149;51.196;6.204;2023-03-01T09:06:00;3.10;58.20
49132;DHT22;35149;51.196;6.204;2023-03-01T09:08:27;3.00;58.20
49132;DHT22;35149;51.196;6.204;2023-03-01T09:10:55;3.00;58.00
49132;DHT22;35149;51.196;6.204;2023-03-01T09:13:22;3.10;57.90
49132;DHT22;35149;51.196;6.204;2023-03-01T09:15:51;3.20;57.80
49132;DHT22;35149;51.196;6.204;2023-03-01T09:18:18;3.20;57.70
49132;DHT22;35149;51.196;6.204;2023-03-01T09:20:44;3.30;57.60
49132;DHT22;35149;51.196;6.204;2023-03-01T09:23:11;3.30;57.60
49132;DHT22;35149;51.196;6.204;2023-03-01T09:25:39;3.40;57.50
49132;DHT22;35149;51.196;6.204;2023-03-01T09:28:05;3.40;57.40
49132;DHT22;35149;51.196;6.204;2023-03-01T09:30:32;3.50;57.40
49132;DHT22;35149;51.196;6.204;2023-03-01T09:33:00;3.60;57.30
49132;DHT22;35149;51.196;6.204;2023-03-01T09:35:26;3.60;57.30
49132;DHT22;35149;51.196;6.204;2023-03-01T09:37:54;3.70;57.10
49132;DHT22;35149;51.196;6.204;2023-03-01T09:40:23;3.70;56.90
49132;DHT22;35149;51.196;6.204;2023-03-01T09:46:00;3.90;56.90
49132;DHT22;35149;51.196;6.204;2023-03-01T09:48:37;3.90;56.50
49132;DHT22;35149;51.196;6.204;2023-03-01T09:51:12;4.00;56.50
49132;DHT22;35149;51.196;6.204;2023-03-01T09:53:41;4.00;56.10
49132;DHT22;35149;51.196;6.204;2023-03-01T09:56:19;4.10;56.00
49132;DHT22;35149;51.196;6.204;2023-03-01T10:08:26;4.40;55.40
49132;DHT22;35149;51.196;6.204;2023-03-01T10:10:55;4.50;55.20
49132;DHT22;35149;51.196;6.204;2023-03-01T10:13:29;4.50;55.10
49132;DHT22;35149;51.196;6.204;2023-03-01T10:16:06;4.60;55.10
49132;DHT22;35149;51.196;6.204;2023-03-01T10:18:39;4.60;54.80
49132;DHT22;35149;51.196;6.204;2023-03-01T10:21:15;4.70;54.70
49132;DHT22;35149;51.196;6.204;2023-03-01T10:23:43;4.70;54.90
49132;DHT22;35149;51.196;6.204;2023-03-01T10:29:07;4.80;54.50
49132;DHT22;35149;51.196;6.204;2023-03-01T10:31:51;4.90;54.30
49132;DHT22;35149;51.196;6.204;2023-03-01T10:34:32;4.90;54.10
49132;DHT22;35149;51.196;6.204;2023-03-01T10:37:17;5.00;54.60
49132;DHT22;35149;51.196;6.204;2023-03-01T10:40:15;5.00;53.70
49132;DHT22;35149;51.196;6.204;2023-03-01T10:42:48;5.10;53.50
49132;DHT22;35149;51.196;6.204;2023-03-01T10:45:23;5.20;53.50
49132;DHT22;35149;51.196;6.204;2023-03-01T10:50:35;5.30;53.20
49132;DHT22;35149;51.196;6.204;2023-03-01T10:53:29;5.30;53.20
49132;DHT22;35149;51.196;6.204;2023-03-01T10:56:11;5.40;53.10
49132;DHT22;35149;51.196;6.204;2023-03-01T10:58:58;5.40;53.00
49132;DHT22;35149;51.196;6.204;2023-03-01T11:01:37;5.50;52.60
49132;DHT22;35149;51.196;6.204;2023-03-01T11:06:35;5.60;52.50
49132;DHT22;35149;51.196;6.204;2023-03-01T11:09:19;5.70;52.50
49132;DHT22;35149;51.196;6.204;2023-03-01T11:11:46;5.70;52.20
49132;DHT22;35149;51.196;6.204;2023-03-01T11:14:21;5.80;52.30
49132;DHT22;35149;51.196;6.204;2023-03-01T11:17:13;5.90;52.10
49132;DHT22;35149;51.196;6.204;2023-03-01T11:20:05;5.90;51.70
49132;DHT22;35149;51.196;6.204;2023-03-01T11:22:36;6.00;51.80
49132;DHT22;35149;51.196;6.204;2023-03-01T11:25:03;6.00;51.80
49132;DHT22;35149;51.196;6.204;2023-03-01T11:27:43;6.10;51.70
49132;DHT22;35149;51.196;6.204;2023-03-01T11:30:26;6.10;51.70
49132;DHT22;35149;51.196;6.204;2023-03-01T11:33:16;6.20;51.70
49132;DHT22;35149;51.196;6.204;2023-03-01T11:35:50;6.20;51.60
49132;DHT22;35149;51.196;6.204;2023-03-01T11:38:23;6.30;51.40
49132;DHT22;35149;51.196;6.204;2023-03-01T11:41:07;6.30;51.60
49132;DHT22;35149;51.196;6.204;2023-03-01T11:47:11;6.40;51.10
49132;DHT22;35149;51.196;6.204;2023-03-01T11:52:59;6.60;51.00
49132;DHT22;35149;51.196;6.204;2023-03-01T12:01:23;6.70;50.50
49132;DHT22;35149;51.196;6.204;2023-03-01T12:03:55;6.70;50.30
49132;DHT22;35149;51.196;6.204;2023-03-01T12:06:46;6.80;50.50
49132;DHT22;35149;51.196;6.204;2023-03-01T12:09:21;6.80;50.20
49132;DHT22;35149;51.196;6.204;2023-03-01T12:37:04;7.30;48.80
49132;DHT22;35149;51.196;6.204;2023-03-01T12:42:47;7.40;48.30
49132;DHT22;35149;51.196;6.204;2023-03-01T12:51:19;7.60;48.00
49132;DHT22;35149;51.196;6.204;2023-03-01T12:53:48;7.60;47.70
49132;DHT22;35149;51.196;6.204;2023-03-01T12:56:27;7.70;47.90
49132;DHT22;35149;51.196;6.204;2023-03-01T12:59:01;7.70;47.90
49132;DHT22;35149;51.196;6.204;2023-03-01T13:01:57;7.80;48.00
49132;DHT22;35149;51.196;6.204;2023-03-01T13:04:40;7.90;47.80
49132;DHT22;35149;51.196;6.204;2023-03-01T13:07:28;7.90;47.90
49132;DHT22;35149;51.196;6.204;2023-03-01T13:13:36;8.00;47.60
49132;DHT22;35149;51.196;6.204;2023-03-01T13:15:38;8.10;47.10
49132;DHT22;35149;51.196;6.204;2023-03-01T13:31:06;8.40;45.50
49132;DHT22;35149;51.196;6.204;2023-03-01T13:33:40;8.50;45.90
49132;DHT22;35149;51.196;6.204;2023-03-01T13:36:08;8.50;45.60
49132;DHT22;35149;51.196;6.204;2023-03-01T13:41:31;8.60;45.40
49132;DHT22;35149;51.196;6.204;2023-03-01T13:46:57;8.80;45.10
49132;DHT22;35149;51.196;6.204;2023-03-01T13:49:29;8.90;45.50
49132;DHT22;35149;51.196;6.204;2023-03-01T13:52:39;9.00;45.20
49132;DHT22;35149;51.196;6.204;2023-03-01T13:55:30;9.10;44.70
49132;DHT22;35149;51.196;6.204;2023-03-01T13:58:16;9.20;44.40
49132;DHT22;35149;51.196;6.204;2023-03-01T14:00:43;9.40;45.00
49132;DHT22;35149;51.196;6.204;2023-03-01T14:03:19;9.70;45.90
49132;DHT22;35149;51.196;6.204;2023-03-01T14:08:39;11.40;46.60
49132;DHT22;35149;51.196;6.204;2023-03-01T14:11:43;12.40;46.40
49132;DHT22;35149;51.196;6.204;2023-03-01T14:14:34;13.50;44.20
49132;DHT22;35149;51.196;6.204;2023-03-01T14:17:12;14.60;43.40
49132;DHT22;35149;51.196;6.204;2023-03-01T14:19:45;15.60;43.10
49132;DHT22;35149;51.196;6.204;2023-03-01T14:25:03;17.60;41.10
49132;DHT22;35149;51.196;6.204;2023-03-01T14:27:39;18.60;39.30
49132;DHT22;35149;51.196;6.204;2023-03-01T14:30:23;19.60;37.10
49132;DHT22;35149;51.196;6.204;2023-03-01T14:33:00;20.40;35.70
49132;DHT22;35149;51.196;6.204;2023-03-01T14:35:35;21.10;34.60
49132;DHT22;35149;51.196;6.204;2023-03-01T14:38:21;21.60;33.90
49132;DHT22;35149;51.196;6.204;2023-03-01T14:40:51;22.20;32.50
49132;DHT22;35149;51.196;6.204;2023-03-01T14:43:26;22.60;32.20
49132;DHT22;35149;51.196;6.204;2023-03-01T14:45:58;23.00;31.40
49132;DHT22;35149;51.196;6.204;2023-03-01T14:48:27;23.30;30.90
49132;DHT22;35149;51.196;6.204;2023-03-01T14:50:57;23.30;30.40
49132;DHT22;35149;51.196;6.204;2023-03-01T14:53:28;23.10;30.40
49132;DHT22;35149;51.196;6.204;2023-03-01T14:56:03;22.70;29.80
49132;DHT22;35149;51.196;6.204;2023-03-01T14:58:32;22.20;29.80
49132;DHT22;35149;51.196;6.204;2023-03-01T15:01:04;21.60;29.60
49132;DHT22;35149;51.196;6.204;2023-03-01T15:03:45;20.90;29.80
49132;DHT22;35149;51.196;6.204;2023-03-01T15:06:21;20.20;29.50
49132;DHT22;35149;51.196;6.204;2023-03-01T15:08:52;19.60;29.90
49132;DHT22;35149;51.196;6.204;2023-03-01T15:11:27;19.00;30.60
49132;DHT22;35149;51.196;6.204;2023-03-01T15:13:59;18.50;30.70
49132;DHT22;35149;51.196;6.204;2023-03-01T15:16:34;18.20;30.70
49132;DHT22;35149;51.196;6.204;2023-03-01T15:19:06;18.30;31.30
49132;DHT22;35149;51.196;6.204;2023-03-01T15:21:48;18.50;32.00
49132;DHT22;35149;51.196;6.204;2023-03-01T15:24:20;18.90;31.50
49132;DHT22;35149;51.196;6.204;2023-03-01T15:27:01;19.40;31.40
49132;DHT22;35149;51.196;6.204;2023-03-01T15:29:34;20.10;30.70
49132;DHT22;35149;51.196;6.204;2023-03-01T15:34:58;21.30;30.10
49132;DHT22;35149;51.196;6.204;2023-03-01T15:37:43;21.80;29.70
49132;DHT22;35149;51.196;6.204;2023-03-01T15:40:25;22.30;28.90
49132;DHT22;35149;51.196;6.204;2023-03-01T15:43:03;22.80;28.40
49132;DHT22;35149;51.196;6.204;2023-03-01T15:45:32;23.20;28.30
49132;DHT22;35149;51.196;6.204;2023-03-01T15:48:05;23.50;28.30
49132;DHT22;35149;51.196;6.204;2023-03-01T15:50:40;23.90;27.70
49132;DHT22;35149;51.196;6.204;2023-03-01T15:53:11;24.30;27.90
49132;DHT22;35149;51.196;6.204;2023-03-01T15:55:38;24.70;27.20
49132;DHT22;35149;51.196;6.204;2023-03-01T15:58:17;24.90;27.30
49132;DHT22;35149;51.196;6.204;2023-03-01T16:00:45;25.10;26.30
49132;DHT22;35149;51.196;6.204;2023-03-01T16:03:27;25.20;26.70
49132;DHT22;35149;51.196;6.204;2023-03-01T16:05:53;25.40;29.30
49132;DHT22;35149;51.196;6.204;2023-03-01T16:08:23;25.40;27.00
49132;DHT22;35149;51.196;6.204;2023-03-01T16:10:49;25.30;26.50
49132;DHT22;35149;51.196;6.204;2023-03-01T16:13:18;25.30;26.30
49132;DHT22;35149;51.196;6.204;2023-03-01T16:15:45;25.10;25.90
49132;DHT22;35149;51.196;6.204;2023-03-01T16:18:12;25.10;25.80
49132;DHT22;35149;51.196;6.204;2023-03-01T16:20:41;24.90;25.70
49132;DHT22;35149;51.196;6.204;2023-03-01T16:23:10;24.70;25.50
49132;DHT22;35149;51.196;6.204;2023-03-01T16:25:37;24.50;25.70
49132;DHT22;35149;51.196;6.204;2023-03-01T16:28:04;24.10;25.70
49132;DHT22;35149;51.196;6.204;2023-03-01T16:30:36;23.60;25.60
49132;DHT22;35149;51.196;6.204;2023-03-01T16:33:03;22.90;25.70
49132;DHT22;35149;51.196;6.204;2023-03-01T16:35:50;22.10;25.90
49132;DHT22;35149;51.196;6.204;2023-03-01T16:38:17;21.20;26.30
49132;DHT22;35149;51.196;6.204;2023-03-01T16:40:48;20.40;26.70
49132;DHT22;35149;51.196;6.204;2023-03-01T16:43:15;19.60;26.90
49132;DHT22;35149;51.196;6.204;2023-03-01T16:45:42;18.80;27.50
49132;DHT22;35149;51.196;6.204;2023-03-01T16:48:11;18.10;28.00
49132;DHT22;35149;51.196;6.204;2023-03-01T16:50:38;17.40;28.50
49132;DHT22;35149;51.196;6.204;2023-03-01T16:53:05;16.70;28.80
49132;DHT22;35149;51.196;6.204;2023-03-01T16:55:34;16.20;29.40
49132;DHT22;35149;51.196;6.204;2023-03-01T16:58:01;15.60;29.80
49132;DHT22;35149;51.196;6.204;2023-03-01T17:00:28;15.10;30.20
49132;DHT22;35149;51.196;6.204;2023-03-01T17:02:55;14.60;30.70
49132;DHT22;35149;51.196;6.204;2023-03-01T17:05:22;14.20;31.30
49132;DHT22;35149;51.196;6.204;2023-03-01T17:07:50;13.80;31.80
49132;DHT22;35149;51.196;6.204;2023-03-01T17:10:17;13.40;32.30
49132;DHT22;35149;51.196;6.204;2023-03-01T17:12:44;13.10;32.60
49132;DHT22;35149;51.196;6.204;2023-03-01T17:15:16;12.80;33.10
49132;DHT22;35149;51.196;6.204;2023-03-01T17:17:42;12.50;33.60
49132;DHT22;35149;51.196;6.204;2023-03-01T17:20:09;12.30;33.90
49132;DHT22;35149;51.196;6.204;2023-03-01T17:22:36;12.00;34.30
49132;DHT22;35149;51.196;6.204;2023-03-01T17:25:03;11.80;34.60
49132;DHT22;35149;51.196;6.204;2023-03-01T17:27:30;11.50;34.80
49132;DHT22;35149;51.196;6.204;2023-03-01T17:30:01;11.30;35.20
49132;DHT22;35149;51.196;6.204;2023-03-01T17:32:30;11.10;35.60
49132;DHT22;35149;51.196;6.204;2023-03-01T17:34:56;10.90;35.90
49132;DHT22;35149;51.196;6.204;2023-03-01T17:37:23;10.70;36.20
49132;DHT22;35149;51.196;6.204;2023-03-01T17:39:50;10.60;36.50
49132;DHT22;35149;51.196;6.204;2023-03-01T17:42:16;10.40;36.80
49132;DHT22;35149;51.196;6.204;2023-03-01T17:44:43;10.30;37.20
49132;DHT22;35149;51.196;6.204;2023-03-01T17:47:10;10.10;37.40
49132;DHT22;35149;51.196;6.204;2023-03-01T17:49:37;9.90;37.60
49132;DHT22;35149;51.196;6.204;2023-03-01T17:52:04;9.80;37.90
49132;DHT22;35149;51.196;6.204;2023-03-01T17:54:32;9.60;38.10
49132;DHT22;35149;51.196;6.204;2023-03-01T17:56:59;9.40;38.30
49132;DHT22;35149;51.196;6.204;2023-03-01T17:59:26;9.30;38.70
49132;DHT22;35149;51.196;6.204;2023-03-01T18:01:58;9.20;38.90
49132;DHT22;35149;51.196;6.204;2023-03-01T18:04:28;9.10;39.20